Time;durP1;ratioP1;P1;durP2;ratioP2;P2;SDS_P1;SDS_P2;PMS_P1;PMS_P2;Temp;Humidity;BMP_temperature;BMP_pressure;BME280_temperature;BME280_humidity;BME280_pressure;Samples;Min_cycle;Max_cycle;Signal;HPM_P1;HPM_P2
2021/03/03 00:01:10;;;;;;;28.35;11.75;;;9.70;70.50;;;;;;5082274;28;20153;-72
2021/03/03 00:03:36;;;;;;;23.13;11.45;;;9.70;70.60;;;;;;5080876;28;20033;-73
2021/03/03 00:06:01;;;;;;;21.25;11.45;;;9.70;70.70;;;;;;5073326;28;20063;-73
2021/03/03 00:08:27;;;;;;;23.50;11.90;;;9.70;70.80;;;;;;5074390;28;20033;-73
2021/03/03 00:10:53;;;;;;;24.80;12.57;;;9.60;70.80;;;;;;5074309;28;20039;-73
2021/03/03 00:13:18;;;;;;;22.58;12.15;;;9.70;71.10;;;;;;5073277;28;20024;-73
2021/03/03 00:15:44;;;;;;;24.83;12.70;;;9.70;71.30;;;;;;5074147;28;20056;-72
2021/03/03 00:18:10;;;;;;;25.30;12.55;;;9.70;71.40;;;;;;5073858;28;20035;-74
2021/03/03 00:20:35;;;;;;;26.85;13.55;;;9.60;71.40;;;;;;5073397;28;20047;-72
2021/03/03 00:23:01;;;;;;;24.75;12.90;;;9.60;71.50;;;;;;5073796;28;20035;-73
2021/03/03 00:25:27;;;;;;;27.58;12.80;;;9.60;71.60;;;;;;5081120;28;20023;-73
2021/03/03 00:27:55;;;;;;;24.77;12.55;;;9.60;71.70;;;;;;5079987;28;20467;-72
2021/03/03 00:30:21;;;;;;;21.98;11.80;;;9.70;71.90;;;;;;5073948;28;20130;-73
2021/03/03 00:32:47;;;;;;;21.70;10.57;;;9.60;71.90;;;;;;5073823;28;20024;-73
2021/03/03 00:35:14;;;;;;;21.83;11.65;;;9.60;72.00;;;;;;5073071;28;20670;-72
2021/03/03 00:37:39;;;;;;;22.15;11.75;;;9.60;72.10;;;;;;5073645;28;20036;-73
2021/03/03 00:40:07;;;;;;;26.02;11.07;;;9.60;72.20;;;;;;5072815;28;20042;-73
2021/03/03 00:42:33;;;;;;;22.20;12.25;;;9.60;72.30;;;;;;5073859;28;20040;-73
2021/03/03 00:44:58;;;;;;;24.45;11.40;;;9.60;72.30;;;;;;5073467;28;20020;-72
2021/03/03 00:47:24;;;;;;;23.35;12.10;;;9.60;72.40;;;;;;5072228;28;20024;-72
2021/03/03 00:49:51;;;;;;;30.50;12.27;;;9.60;72.50;;;;;;5067968;28;20118;-72
2021/03/03 00:52:18;;;;;;;20.50;12.02;;;9.60;72.60;;;;;;5074872;28;20021;-72
2021/03/03 00:54:44;;;;;;;20.95;11.13;;;9.50;72.70;;;;;;5054756;28;20442;-73
2021/03/03 00:57:11;;;;;;;21.60;11.75;;;9.50;72.80;;;;;;5054926;28;20462;-72
2021/03/03 00:59:37;;;;;;;19.45;10.13;;;9.50;72.90;;;;;;5073229;28;20115;-72
2021/03/03 01:02:02;;;;;;;21.73;11.85;;;9.40;72.90;;;;;;5072251;28;20044;-72
2021/03/03 01:04:28;;;;;;;21.70;12.23;;;9.40;72.90;;;;;;5061969;28;20024;-72
2021/03/03 01:06:55;;;;;;;18.70;11.38;;;9.40;73.00;;;;;;5080383;28;20031;-72
2021/03/03 01:09:22;;;;;;;23.33;12.57;;;9.40;73.00;;;;;;5068272;28;20016;-73
2021/03/03 01:11:48;;;;;;;22.35;11.60;;;9.40;73.10;;;;;;5073143;28;20032;-72
2021/03/03 01:14:16;;;;;;;27.08;11.65;;;9.40;73.00;;;;;;5055283;28;20364;-72
2021/03/03 01:16:49;;;;;;;25.77;12.27;;;9.40;73.10;;;;;;5054214;28;20062;-72
2021/03/03 01:19:16;;;;;;;26.35;12.73;;;9.40;73.20;;;;;;5055201;28;20029;-72
2021/03/03 01:21:41;;;;;;;24.13;11.63;;;9.30;73.20;;;;;;5072733;28;20035;-72
2021/03/03 01:24:07;;;;;;;22.98;12.07;;;9.30;73.30;;;;;;5072230;28;20387;-72
2021/03/03 01:26:33;;;;;;;23.13;11.43;;;9.30;73.40;;;;;;5072990;28;20039;-72
2021/03/03 01:28:59;;;;;;;24.73;11.80;;;9.30;73.50;;;;;;5072915;28;20024;-72
2021/03/03 01:31:24;;;;;;;22.67;12.07;;;9.30;73.70;;;;;;5072113;28;20425;-72
2021/03/03 01:33:50;;;;;;;22.05;11.75;;;9.20;73.70;;;;;;5072882;28;20474;-73
2021/03/03 01:36:16;;;;;;;23.77;11.35;;;9.20;73.80;;;;;;5071960;28;20056;-73
2021/03/03 01:38:41;;;;;;;26.73;11.23;;;9.20;73.90;;;;;;5072565;28;20111;-73
2021/03/03 01:41:07;;;;;;;22.52;11.52;;;9.20;73.90;;;;;;5072867;28;20055;-72
2021/03/03 01:43:33;;;;;;;21.00;11.07;;;9.20;74.00;;;;;;5071783;28;20040;-72
2021/03/03 01:45:59;;;;;;;21.75;11.68;;;9.20;74.00;;;;;;5072695;28;20111;-72
2021/03/03 01:48:24;;;;;;;20.88;11.30;;;9.20;74.00;;;;;;5072546;28;20035;-72
2021/03/03 01:50:50;;;;;;;24.52;12.45;;;9.20;74.00;;;;;;5092226;28;20058;-72
2021/03/03 01:53:16;;;;;;;21.83;10.40;;;9.20;74.00;;;;;;5080335;28;20048;-72
2021/03/03 01:55:42;;;;;;;25.00;12.38;;;9.20;74.00;;;;;;5072374;28;20063;-73
2021/03/03 01:58:09;;;;;;;24.85;12.75;;;9.20;74.00;;;;;;5073047;28;20060;-72
2021/03/03 02:00:34;;;;;;;25.33;11.40;;;9.20;73.90;;;;;;5079079;28;20041;-73
2021/03/03 02:03:00;;;;;;;25.35;12.55;;;9.10;73.80;;;;;;5079148;28;20070;-73
2021/03/03 02:05:28;;;;;;;25.80;13.02;;;9.10;73.80;;;;;;5078262;28;20455;-73
2021/03/03 02:08:16;;;;;;;24.15;12.27;;;9.10;73.90;;;;;;5081764;28;20063;-73
2021/03/03 02:11:07;;;;;;;20.75;11.60;;;9.10;74.00;;;;;;5087369;28;20158;-73
2021/03/03 02:13:36;;;;;;;22.95;11.82;;;9.10;74.00;;;;;;5078456;28;20029;-73
2021/03/03 02:16:04;;;;;;;22.73;11.25;;;9.10;74.00;;;;;;5078882;28;20418;-73
2021/03/03 02:18:33;;;;;;;24.30;12.30;;;9.00;73.90;;;;;;5084632;28;20539;-73
2021/03/03 02:21:08;;;;;;;22.90;11.70;;;9.00;73.90;;;;;;5086669;28;20194;-72
2021/03/03 02:23:50;;;;;;;22.63;12.27;;;9.00;73.90;;;;;;5078888;28;20068;-72
2021/03/03 02:26:19;;;;;;;24.33;11.93;;;9.00;73.90;;;;;;5078063;28;20043;-73
2021/03/03 02:28:46;;;;;;;25.38;12.32;;;9.00;73.90;;;;;;5081373;28;20025;-72
2021/03/03 02:31:17;;;;;;;26.95;11.75;;;9.00;73.80;;;;;;5083528;28;20475;-72
2021/03/03 02:33:44;;;;;;;24.77;12.80;;;9.00;73.70;;;;;;5078082;28;20020;-72
2021/03/03 02:36:12;;;;;;;23.00;11.40;;;9.00;73.70;;;;;;5078953;28;20135;-72
2021/03/03 02:38:42;;;;;;;22.23;11.50;;;8.90;73.60;;;;;;5078811;28;20086;-72
2021/03/03 02:41:14;;;;;;;20.75;12.25;;;8.90;73.60;;;;;;5078351;28;20021;-72
2021/03/03 02:43:42;;;;;;;27.83;12.68;;;8.90;73.50;;;;;;5091344;28;20037;-72
2021/03/03 02:46:09;;;;;;;24.33;11.82;;;8.90;73.50;;;;;;5079029;28;20471;-73
2021/03/03 02:48:36;;;;;;;23.83;12.15;;;8.90;73.40;;;;;;5083815;28;20024;-72
2021/03/03 02:51:02;;;;;;;27.15;12.38;;;8.90;73.40;;;;;;5086931;28;20036;-72
2021/03/03 02:53:27;;;;;;;20.20;11.15;;;8.90;73.40;;;;;;5092945;28;20024;-72
2021/03/03 02:55:53;;;;;;;22.50;12.23;;;8.90;73.50;;;;;;5078228;28;20062;-72
2021/03/03 02:58:22;;;;;;;23.33;11.20;;;8.90;73.50;;;;;;5078449;28;20139;-72
2021/03/03 03:00:52;;;;;;;24.92;12.20;;;8.90;73.50;;;;;;5078172;28;20024;-72
2021/03/03 03:03:28;;;;;;;25.40;12.32;;;8.80;73.50;;;;;;5078484;28;20158;-72
2021/03/03 03:06:13;;;;;;;24.10;12.15;;;8.90;73.70;;;;;;5078761;28;20028;-72
2021/03/03 03:08:40;;;;;;;24.48;12.05;;;8.80;73.70;;;;;;5077728;28;20035;-72
2021/03/03 03:11:09;;;;;;;26.33;12.27;;;8.80;73.80;;;;;;5075446;28;20040;-72
2021/03/03 03:13:36;;;;;;;26.75;11.43;;;8.80;74.00;;;;;;5075304;28;20103;-72
2021/03/03 03:16:03;;;;;;;22.48;10.75;;;8.80;74.10;;;;;;5056868;28;20042;-73
2021/03/03 03:18:34;;;;;;;24.55;12.45;;;8.70;74.20;;;;;;5075184;28;20029;-72
2021/03/03 03:21:01;;;;;;;27.67;11.23;;;8.70;74.30;;;;;;5075563;28;20049;-73
2021/03/03 03:23:27;;;;;;;24.52;11.98;;;8.70;74.40;;;;;;5074680;28;20029;-72
2021/03/03 03:25:55;;;;;;;19.98;10.88;;;8.70;74.40;;;;;;5074992;28;20520;-73
2021/03/03 03:28:22;;;;;;;25.83;11.95;;;8.70;74.50;;;;;;5075195;28;20039;-73
2021/03/03 03:30:48;;;;;;;22.52;11.63;;;8.70;74.60;;;;;;5074246;28;20119;-72
2021/03/03 03:33:15;;;;;;;22.48;11.95;;;8.60;74.60;;;;;;5075032;28;20044;-73
2021/03/03 03:35:41;;;;;;;22.75;11.20;;;8.60;74.70;;;;;;5075048;28;20037;-73
2021/03/03 03:38:07;;;;;;;26.13;11.40;;;8.60;74.70;;;;;;5074210;28;20119;-72
2021/03/03 03:40:33;;;;;;;24.95;11.95;;;8.60;74.90;;;;;;5074245;28;20090;-72
2021/03/03 03:42:59;;;;;;;29.52;12.15;;;8.60;75.00;;;;;;5074050;28;20499;-73
2021/03/03 03:45:26;;;;;;;28.90;12.48;;;8.60;75.10;;;;;;5074151;28;20043;-73
2021/03/03 03:47:53;;;;;;;23.35;11.63;;;8.60;75.80;;;;;;5074618;28;20555;-72
2021/03/03 03:50:25;;;;;;;26.98;11.95;;;8.60;75.30;;;;;;5073884;28;20051;-73
2021/03/03 03:52:56;;;;;;;27.77;12.80;;;8.50;75.20;;;;;;5074679;28;20075;-73
2021/03/03 03:55:36;;;;;;;22.55;10.65;;;8.50;75.30;;;;;;5074663;28;20028;-72
2021/03/03 03:58:03;;;;;;;23.60;11.65;;;8.60;75.40;;;;;;5075492;28;20102;-73
2021/03/03 04:00:29;;;;;;;22.45;10.77;;;8.50;75.30;;;;;;5086656;28;20040;-73
2021/03/03 04:02:55;;;;;;;25.13;11.57;;;8.60;75.40;;;;;;5074710;28;20041;-72
2021/03/03 04:05:22;;;;;;;24.90;11.80;;;8.50;75.40;;;;;;5087703;28;20056;-72
2021/03/03 04:07:47;;;;;;;27.40;12.82;;;8.50;75.30;;;;;;5074334;28;20040;-73
2021/03/03 04:10:15;;;;;;;33.33;12.75;;;8.60;75.40;;;;;;5074222;28;20024;-73
2021/03/03 04:12:42;;;;;;;25.75;12.48;;;8.50;75.30;;;;;;5073469;28;20472;-72
2021/03/03 04:15:09;;;;;;;27.25;12.57;;;8.50;75.30;;;;;;5074328;28;20043;-73
2021/03/03 04:17:37;;;;;;;27.83;12.02;;;8.60;75.40;;;;;;5074246;28;20047;-72
2021/03/03 04:20:05;;;;;;;24.50;12.52;;;8.50;75.40;;;;;;5073389;28;20043;-73
2021/03/03 04:22:31;;;;;;;35.97;12.35;;;8.50;75.50;;;;;;5073054;28;20033;-72
2021/03/03 04:24:57;;;;;;;26.40;12.65;;;8.50;75.40;;;;;;5073658;28;20468;-72
2021/03/03 04:27:23;;;;;;;28.10;12.75;;;8.50;75.50;;;;;;5073435;28;20071;-73
2021/03/03 04:29:49;;;;;;;24.05;11.98;;;8.50;75.50;;;;;;5074034;28;20058;-72
2021/03/03 04:32:21;;;;;;;28.35;12.27;;;8.50;75.50;;;;;;5072953;28;20383;-72
2021/03/03 04:34:46;;;;;;;29.60;12.15;;;8.50;75.50;;;;;;5073965;28;20024;-73
2021/03/03 04:37:12;;;;;;;25.77;12.63;;;8.50;75.50;;;;;;5073527;28;20494;-72
2021/03/03 04:39:38;;;;;;;28.70;12.63;;;8.50;75.50;;;;;;5072980;28;20020;-73
2021/03/03 04:42:04;;;;;;;34.33;12.63;;;8.40;75.50;;;;;;5084420;28;20466;-72
2021/03/03 04:44:31;;;;;;;25.38;11.85;;;8.50;75.60;;;;;;5091189;28;20527;-72
2021/03/03 04:46:56;;;;;;;27.85;12.85;;;8.40;75.50;;;;;;5072907;28;20036;-73
2021/03/03 04:49:22;;;;;;;25.05;12.98;;;8.40;75.50;;;;;;5073357;28;20059;-72
2021/03/03 04:51:48;;;;;;;25.30;12.50;;;8.40;75.60;;;;;;5080391;28;20024;-72
2021/03/03 04:54:13;;;;;;;28.35;11.82;;;8.40;75.50;;;;;;5080097;28;20033;-73
2021/03/03 04:56:39;;;;;;;26.10;11.95;;;8.40;75.50;;;;;;5072868;28;20060;-72
2021/03/03 04:59:04;;;;;;;27.27;11.95;;;8.40;75.60;;;;;;5073417;28;20036;-72
2021/03/03 05:01:33;;;;;;;20.98;11.00;;;8.30;75.60;;;;;;5072619;28;20063;-73
2021/03/03 05:03:59;;;;;;;20.80;10.38;;;8.30;75.70;;;;;;5073407;28;20422;-72
2021/03/03 05:06:26;;;;;;;28.20;12.13;;;8.30;75.80;;;;;;5074174;28;20037;-72
2021/03/03 05:08:51;;;;;;;29.85;11.80;;;8.30;75.90;;;;;;5093223;28;20024;-73
2021/03/03 05:11:17;;;;;;;24.20;11.63;;;8.30;75.90;;;;;;5080082;28;20410;-73
2021/03/03 05:13:43;;;;;;;26.45;11.70;;;8.20;75.90;;;;;;5078578;28;20036;-73
2021/03/03 05:16:09;;;;;;;31.70;12.27;;;8.20;76.00;;;;;;5092606;28;20028;-72
2021/03/03 05:18:34;;;;;;;22.85;11.23;;;8.30;76.10;;;;;;5093242;28;20505;-73
2021/03/03 05:21:00;;;;;;;25.33;12.43;;;8.20;76.00;;;;;;5084024;28;20029;-73
2021/03/03 05:23:31;;;;;;;26.90;11.07;;;8.20;76.00;;;;;;5072111;28;20040;-73
2021/03/03 05:25:57;;;;;;;25.38;12.02;;;8.20;76.00;;;;;;5073264;28;20082;-73
2021/03/03 05:28:23;;;;;;;20.95;10.65;;;8.20;76.00;;;;;;5072314;28;20037;-73
2021/03/03 05:30:49;;;;;;;24.10;11.35;;;8.20;76.10;;;;;;5072990;28;20043;-73
2021/03/03 05:33:32;;;;;;;23.23;11.40;;;8.10;76.10;;;;;;5072629;28;20477;-73
2021/03/03 05:36:04;;;;;;;31.50;12.20;;;8.10;76.20;;;;;;5072206;28;20398;-73
2021/03/03 05:38:31;;;;;;;24.83;11.93;;;8.10;76.30;;;;;;5072865;28;20040;-73
2021/03/03 05:40:57;;;;;;;26.50;12.07;;;8.10;76.30;;;;;;5072829;28;20052;-73
2021/03/03 05:43:23;;;;;;;22.60;11.38;;;8.00;76.40;;;;;;5072060;28;20067;-73
2021/03/03 05:45:49;;;;;;;33.08;12.02;;;8.00;76.50;;;;;;5072765;28;20032;-73
2021/03/03 05:48:37;;;;;;;25.55;11.52;;;8.00;76.60;;;;;;5072637;28;20036;-72
2021/03/03 05:51:05;;;;;;;27.30;12.50;;;8.00;76.70;;;;;;5072217;28;20029;-72
2021/03/03 05:53:32;;;;;;;24.13;11.63;;;8.00;76.70;;;;;;5079380;28;20569;-72
2021/03/03 05:55:59;;;;;;;22.42;11.55;;;7.90;76.70;;;;;;5079701;28;20021;-72
2021/03/03 05:58:27;;;;;;;31.83;13.20;;;7.90;76.70;;;;;;5071604;28;20044;-73
2021/03/03 06:00:58;;;;;;;27.52;11.93;;;7.90;76.80;;;;;;5072463;28;20039;-72
2021/03/03 06:03:25;;;;;;;26.88;13.00;;;7.90;76.80;;;;;;5072598;28;20040;-73
2021/03/03 06:05:51;;;;;;;28.35;12.68;;;7.90;76.90;;;;;;5072250;28;20036;-73
2021/03/03 06:08:19;;;;;;;32.83;12.57;;;7.90;76.80;;;;;;5072332;28;20028;-73
2021/03/03 06:10:45;;;;;;;25.98;9.75;;;7.90;76.80;;;;;;5071652;28;20033;-73
2021/03/03 06:13:11;;;;;;;24.35;10.55;;;7.90;76.80;;;;;;5073004;28;20479;-73
2021/03/03 06:15:38;;;;;;;24.05;10.95;;;7.90;76.80;;;;;;5091757;28;20387;-73
2021/03/03 06:18:08;;;;;;;27.35;11.57;;;7.90;76.80;;;;;;5091598;28;20532;-73
2021/03/03 06:20:41;;;;;;;26.20;10.85;;;7.90;77.40;;;;;;5092389;28;20031;-73
2021/03/03 06:23:18;;;;;;;30.52;11.27;;;7.90;76.80;;;;;;5092618;28;20036;-73
2021/03/03 06:25:46;;;;;;;25.92;11.73;;;7.90;77.10;;;;;;5089480;28;20039;-70
2021/03/03 06:28:29;;;;;;;23.75;11.30;;;7.90;76.70;;;;;;5091771;28;20058;-72
2021/03/03 06:31:26;;;;;;;22.85;9.90;;;7.90;76.70;;;;;;5092408;28;20021;-72
2021/03/03 06:33:53;;;;;;;21.58;10.38;;;7.90;76.70;;;;;;5088071;28;20031;-72
2021/03/03 06:36:21;;;;;;;22.90;10.15;;;7.90;76.70;;;;;;5091271;28;20024;-73
2021/03/03 06:38:46;;;;;;;20.10;9.45;;;7.80;76.70;;;;;;5085971;28;20040;-72
2021/03/03 06:41:12;;;;;;;26.55;10.68;;;7.90;76.80;;;;;;5088076;28;20089;-73
2021/03/03 06:43:38;;;;;;;19.13;9.60;;;7.90;76.90;;;;;;5088795;28;20077;-72
2021/03/03 06:46:18;;;;;;;19.60;9.38;;;7.80;76.90;;;;;;5088854;28;20035;-73
2021/03/03 06:48:45;;;;;;;18.73;8.23;;;7.80;77.00;;;;;;5094974;28;20032;-73
2021/03/03 06:51:25;;;;;;;27.20;10.05;;;7.80;77.00;;;;;;5095764;28;20498;-70
2021/03/03 06:53:53;;;;;;;17.40;7.88;;;7.80;77.30;;;;;;5094707;28;20482;-71
2021/03/03 06:56:46;;;;;;;21.75;9.63;;;7.70;77.30;;;;;;5089254;28;20522;-73
2021/03/03 06:59:16;;;;;;;18.38;10.10;;;7.70;77.60;;;;;;5094404;28;20051;-72
2021/03/03 07:01:43;;;;;;;18.90;8.95;;;7.70;77.60;;;;;;5093413;28;20024;-75
2021/03/03 07:04:18;;;;;;;22.85;11.00;;;7.70;77.80;;;;;;5094509;28;20950;-72
2021/03/03 07:06:44;;;;;;;23.88;9.77;;;7.70;78.00;;;;;;5093409;28;20024;-72
2021/03/03 07:09:11;;;;;;;30.90;12.20;;;7.70;78.00;;;;;;5091942;28;20020;-72
2021/03/03 07:11:38;;;;;;;19.75;10.23;;;7.70;78.00;;;;;;5092842;28;20561;-73
2021/03/03 07:14:21;;;;;;;27.25;11.77;;;7.70;78.00;;;;;;5092812;28;20074;-73
2021/03/03 07:17:06;;;;;;;23.73;10.57;;;7.70;78.00;;;;;;5090808;28;20046;-73
2021/03/03 07:19:33;;;;;;;20.08;10.35;;;7.70;78.00;;;;;;5096360;28;20077;-73
2021/03/03 07:21:59;;;;;;;24.13;10.82;;;7.70;77.90;;;;;;5096508;28;20028;-71
2021/03/03 07:24:28;;;;;;;25.10;9.80;;;7.70;77.90;;;;;;5093675;28;20039;-72
2021/03/03 07:26:54;;;;;;;23.15;9.93;;;7.70;77.90;;;;;;5093942;28;20031;-72
2021/03/03 07:29:19;;;;;;;20.75;9.60;;;7.70;77.90;;;;;;5090766;28;20073;-72
2021/03/03 07:31:45;;;;;;;19.40;9.48;;;7.70;77.90;;;;;;5093790;28;20020;-72
2021/03/03 07:34:11;;;;;;;24.25;9.65;;;7.70;78.00;;;;;;5093584;28;20081;-73
2021/03/03 07:36:39;;;;;;;20.35;10.63;;;7.70;78.10;;;;;;5092013;28;20527;-72
2021/03/03 07:39:09;;;;;;;20.92;8.77;;;7.70;78.20;;;;;;5090798;28;20032;-73
2021/03/03 07:41:43;;;;;;;20.60;9.70;;;7.70;78.20;;;;;;5091122;28;20482;-72
2021/03/03 07:44:18;;;;;;;22.63;10.23;;;7.70;78.20;;;;;;5092403;28;20028;-72
2021/03/03 07:46:47;;;;;;;19.88;9.27;;;7.70;78.30;;;;;;5091276;28;20060;-72
2021/03/03 07:49:19;;;;;;;21.40;9.95;;;7.70;78.40;;;;;;5091305;28;20027;-72
2021/03/03 07:51:45;;;;;;;21.48;10.23;;;7.70;78.50;;;;;;5093626;28;20444;-81
2021/03/03 07:54:12;;;;;;;21.90;9.18;;;7.70;78.60;;;;;;5092678;28;20089;-73
2021/03/03 07:56:38;;;;;;;20.38;9.07;;;7.70;78.70;;;;;;5093237;28;20035;-73
2021/03/03 07:59:08;;;;;;;20.10;8.70;;;7.70;78.90;;;;;;5100085;28;20032;-72
2021/03/03 08:01:35;;;;;;;25.85;8.52;;;7.70;78.90;;;;;;5106185;28;20032;-72
2021/03/03 08:04:01;;;;;;;23.40;10.55;;;7.60;79.00;;;;;;5099009;28;20444;-73
2021/03/03 08:06:35;;;;;;;21.63;9.85;;;7.60;79.00;;;;;;5095767;28;20363;-72
2021/03/03 08:09:06;;;;;;;23.13;10.85;;;7.70;79.10;;;;;;5100136;28;20036;-73
2021/03/03 08:11:34;;;;;;;9.88;3.80;;;7.70;79.20;;;;;;5092448;28;20426;-72
2021/03/03 08:14:00;;;;;;;17.92;7.07;;;7.70;79.30;;;;;;5097891;28;20028;-72
2021/03/03 08:16:27;;;;;;;15.63;8.82;;;7.70;79.50;;;;;;5094969;28;20028;-75
2021/03/03 08:18:56;;;;;;;27.42;12.10;;;7.70;79.40;;;;;;5095292;28;20035;-76
2021/03/03 08:21:22;;;;;;;11.05;6.35;;;7.70;79.50;;;;;;5100681;28;20032;-75
2021/03/03 08:23:52;;;;;;;28.98;13.65;;;7.70;79.60;;;;;;5091864;28;20028;-75
2021/03/03 08:26:20;;;;;;;16.47;7.00;;;7.70;79.70;;;;;;5093213;28;20032;-75
2021/03/03 08:28:47;;;;;;;19.75;8.98;;;7.70;79.80;;;;;;5100421;28;20059;-75
2021/03/03 08:31:16;;;;;;;12.60;5.88;;;7.70;79.90;;;;;;5093288;28;20126;-75
2021/03/03 08:33:43;;;;;;;15.68;6.82;;;7.60;79.90;;;;;;5093746;28;20032;-75
2021/03/03 08:36:31;;;;;;;20.15;8.30;;;7.60;80.00;;;;;;5093957;28;20028;-70
2021/03/03 08:38:57;;;;;;;25.45;9.80;;;7.60;80.20;;;;;;5062800;28;20083;-72
2021/03/03 08:41:26;;;;;;;14.32;4.90;;;7.60;80.40;;;;;;5087447;28;20044;-73
2021/03/03 08:44:10;;;;;;;14.35;7.07;;;7.60;80.60;;;;;;5073494;28;20502;-73
2021/03/03 08:46:42;;;;;;;11.48;6.18;;;7.60;80.80;;;;;;5078422;28;20040;-73
2021/03/03 08:49:07;;;;;;;13.98;6.50;;;7.60;81.00;;;;;;5092444;28;20028;-72
2021/03/03 08:51:33;;;;;;;8.27;4.85;;;7.60;81.20;;;;;;5093047;28;20097;-73
2021/03/03 08:54:04;;;;;;;11.70;6.05;;;7.60;81.50;;;;;;5092232;28;20028;-73
2021/03/03 08:56:46;;;;;;;13.27;7.75;;;7.60;81.70;;;;;;5093540;28;20039;-73
2021/03/03 08:59:28;;;;;;;5.95;3.75;;;7.60;82.00;;;;;;5081346;28;20039;-73
2021/03/03 09:02:17;;;;;;;12.65;6.18;;;7.60;82.20;;;;;;5092621;28;20032;-73
2021/03/03 09:04:56;;;;;;;12.60;5.57;;;7.60;82.30;;;;;;5091884;28;20031;-73
2021/03/03 09:07:29;;;;;;;17.80;6.40;;;7.60;82.50;;;;;;5090744;28;20049;-73
2021/03/03 09:09:57;;;;;;;3.75;2.55;;;7.60;82.50;;;;;;5092676;28;20024;-73
2021/03/03 09:12:41;;;;;;;16.10;8.70;;;7.60;82.60;;;;;;5092611;28;20500;-73
2021/03/03 09:15:09;;;;;;;8.80;3.83;;;7.60;82.90;;;;;;5091243;28;20109;-74
2021/03/03 09:17:36;;;;;;;27.00;8.43;;;7.70;83.10;;;;;;5092295;28;20494;-73
2021/03/03 09:20:11;;;;;;;10.02;6.35;;;7.70;83.40;;;;;;5092368;28;20024;-74
2021/03/03 09:22:40;;;;;;;18.00;8.20;;;7.70;83.60;;;;;;5089974;28;20035;-73
2021/03/03 09:25:05;;;;;;;19.65;8.52;;;7.70;83.70;;;;;;5092255;28;20494;-73
2021/03/03 09:27:31;;;;;;;9.45;6.10;;;7.70;83.80;;;;;;5091426;28;20035;-73
2021/03/03 09:29:57;;;;;;;19.33;7.65;;;7.70;83.80;;;;;;5092034;28;20039;-73
2021/03/03 09:32:24;;;;;;;15.73;7.65;;;7.70;84.00;;;;;;5092370;28;20111;-73
2021/03/03 09:34:54;;;;;;;16.60;8.38;;;7.80;84.20;;;;;;5092045;28;20023;-73
2021/03/03 09:37:21;;;;;;;23.15;12.43;;;7.80;84.50;;;;;;5092541;28;20042;-73
2021/03/03 09:39:55;;;;;;;18.25;9.38;;;7.70;84.60;;;;;;5081435;28;20111;-73
2021/03/03 09:42:21;;;;;;;6.40;3.83;;;7.80;84.90;;;;;;5077072;28;20054;-73
2021/03/03 09:44:54;;;;;;;31.83;17.33;;;7.80;85.00;;;;;;5073288;28;20036;-72
2021/03/03 09:47:24;;;;;;;35.23;18.73;;;7.80;85.40;;;;;;5082707;28;20036;-71
2021/03/03 09:49:50;;;;;;;25.00;11.75;;;7.90;85.50;;;;;;5086731;28;20487;-72
2021/03/03 09:52:18;;;;;;;16.92;7.80;;;7.80;85.20;;;;;;5072534;28;20033;-72
2021/03/03 09:54:44;;;;;;;10.85;6.20;;;7.90;85.30;;;;;;5076260;28;20036;-72
2021/03/03 09:57:12;;;;;;;11.20;5.80;;;8.00;85.10;;;;;;5102814;28;20056;-73
2021/03/03 09:59:44;;;;;;;45.05;23.73;;;8.00;85.00;;;;;;5077379;28;20032;-72
2021/03/03 10:02:18;;;;;;;33.65;14.98;;;8.10;85.80;;;;;;5072380;28;20056;-72
2021/03/03 10:04:45;;;;;;;20.58;10.38;;;8.20;85.40;;;;;;5086548;28;20032;-72
2021/03/03 10:07:12;;;;;;;29.80;7.45;;;8.20;85.30;;;;;;5085318;28;20037;-72
2021/03/03 10:09:40;;;;;;;27.70;13.45;;;8.30;85.10;;;;;;5071443;28;20090;-72
2021/03/03 10:12:10;;;;;;;40.05;20.25;;;8.30;85.10;;;;;;5072099;28;20103;-72
2021/03/03 10:14:58;;;;;;;40.15;19.52;;;8.40;85.30;;;;;;5072297;28;20029;-72
2021/03/03 10:17:32;;;;;;;14.13;7.18;;;8.50;85.40;;;;;;5089386;28;20090;-72
2021/03/03 10:19:59;;;;;;;29.05;15.05;;;8.50;85.00;;;;;;5087371;28;20024;-72
2021/03/03 10:22:26;;;;;;;37.50;17.45;;;8.50;84.80;;;;;;5096422;28;20089;-72
2021/03/03 10:25:06;;;;;;;36.72;18.67;;;8.60;84.80;;;;;;5095487;28;20386;-72
2021/03/03 10:27:39;;;;;;;35.05;15.48;;;8.60;84.90;;;;;;5089442;28;20402;-72
2021/03/03 10:30:26;;;;;;;21.93;12.83;;;8.70;84.80;;;;;;5096493;28;20028;-72
2021/03/03 10:32:53;;;;;;;13.07;5.97;;;8.70;84.70;;;;;;5090742;28;20219;-72
2021/03/03 10:35:25;;;;;;;23.10;11.65;;;8.80;84.60;;;;;;5096045;28;20104;-72
2021/03/03 10:37:57;;;;;;;29.42;17.30;;;8.80;84.80;;;;;;5095210;28;20040;-72
2021/03/03 10:40:23;;;;;;;29.48;14.77;;;8.80;84.90;;;;;;5085235;28;20116;-72
2021/03/03 10:42:48;;;;;;;22.33;10.10;;;8.80;84.90;;;;;;5075430;28;20453;-72
2021/03/03 10:45:22;;;;;;;37.97;17.33;;;8.80;84.80;;;;;;5075156;28;20051;-72
2021/03/03 10:47:49;;;;;;;9.23;4.85;;;8.90;84.90;;;;;;5076711;28;20036;-72
2021/03/03 10:50:17;;;;;;;13.65;6.68;;;8.90;84.80;;;;;;5087749;28;20036;-72
2021/03/03 10:53:01;;;;;;;14.27;5.90;;;8.90;84.70;;;;;;5074459;28;20544;-72
2021/03/03 10:55:35;;;;;;;13.43;8.02;;;8.90;84.80;;;;;;5094965;28;20118;-75
2021/03/03 10:58:15;;;;;;;10.90;4.78;;;8.90;84.80;;;;;;5089857;28;20051;-83
2021/03/03 11:01:04;;;;;;;7.60;3.72;;;8.90;85.00;;;;;;5095666;28;20039;-71
2021/03/03 11:03:57;;;;;;;14.85;6.93;;;8.80;85.10;;;;;;5094483;28;20028;-71
2021/03/03 11:06:35;;;;;;;29.00;13.57;;;8.80;85.40;;;;;;5067793;28;20410;-71
2021/03/03 11:09:06;;;;;;;19.23;8.32;;;8.80;85.30;;;;;;5095388;28;20043;-71
2021/03/03 11:11:44;;;;;;;17.65;9.23;;;8.70;85.50;;;;;;5092782;28;20026;-69
2021/03/03 11:14:10;;;;;;;7.35;3.97;;;8.80;85.60;;;;;;5094643;28;20036;-72
2021/03/03 11:16:36;;;;;;;9.43;4.88;;;8.80;85.50;;;;;;5092945;28;20096;-71
2021/03/03 11:19:01;;;;;;;10.35;5.93;;;8.80;85.50;;;;;;5094863;28;20043;-71
2021/03/03 11:21:27;;;;;;;21.15;10.02;;;8.90;85.40;;;;;;5092357;28;20035;-72
2021/03/03 11:23:53;;;;;;;14.60;7.03;;;8.80;85.30;;;;;;5091986;28;20024;-72
2021/03/03 11:26:18;;;;;;;20.60;7.82;;;8.80;85.20;;;;;;5093638;28;20082;-72
2021/03/03 11:28:44;;;;;;;7.22;4.97;;;8.80;85.10;;;;;;5091033;28;20056;-71
2021/03/03 11:31:09;;;;;;;7.65;4.57;;;8.90;85.20;;;;;;5093131;28;20077;-72
2021/03/03 11:33:38;;;;;;;7.78;5.10;;;8.90;85.10;;;;;;5091320;28;20036;-71
2021/03/03 11:36:04;;;;;;;11.38;6.63;;;8.90;85.00;;;;;;5093176;28;20466;-72
2021/03/03 11:38:30;;;;;;;7.85;5.13;;;8.80;85.00;;;;;;5092090;28;20035;-71
2021/03/03 11:40:56;;;;;;;11.98;6.05;;;8.80;85.10;;;;;;5094273;28;20532;-71
2021/03/03 11:43:22;;;;;;;26.05;9.27;;;8.80;85.10;;;;;;5094054;28;20032;-71
2021/03/03 11:45:48;;;;;;;17.40;7.40;;;8.80;85.20;;;;;;5093397;28;20024;-70
2021/03/03 11:48:14;;;;;;;30.55;9.00;;;8.80;85.20;;;;;;5091628;28;20141;-71
2021/03/03 11:50:42;;;;;;;16.90;7.05;;;8.70;85.00;;;;;;5092515;28;20024;-71
2021/03/03 11:53:08;;;;;;;22.35;8.43;;;8.80;84.90;;;;;;5092425;28;20062;-72
2021/03/03 11:55:34;;;;;;;11.63;6.78;;;8.90;84.90;;;;;;5091996;28;20060;-72
2021/03/03 11:58:00;;;;;;;14.80;7.80;;;8.80;84.80;;;;;;5090486;28;20054;-72
2021/03/03 12:00:26;;;;;;;28.98;10.38;;;8.80;84.60;;;;;;5092956;28;20063;-71
2021/03/03 12:02:53;;;;;;;12.00;5.80;;;8.90;84.60;;;;;;5091587;28;20081;-71
2021/03/03 12:05:18;;;;;;;25.13;11.30;;;8.80;84.60;;;;;;5093994;28;20024;-70
2021/03/03 12:07:44;;;;;;;5.22;3.75;;;8.90;84.50;;;;;;5093837;28;20433;-70
2021/03/03 12:10:10;;;;;;;20.58;8.30;;;8.90;84.50;;;;;;5092974;28;20055;-70
2021/03/03 12:12:36;;;;;;;42.83;10.88;;;8.90;84.50;;;;;;5094031;28;20059;-71
2021/03/03 12:15:05;;;;;;;24.45;9.02;;;8.80;84.30;;;;;;5095640;28;20129;-70
2021/03/03 12:17:30;;;;;;;42.97;15.32;;;8.90;84.20;;;;;;5091594;28;20055;-70
2021/03/03 12:19:56;;;;;;;29.83;12.48;;;9.00;84.20;;;;;;5093011;28;20466;-70
2021/03/03 12:22:22;;;;;;;23.52;7.85;;;8.90;84.80;;;;;;5092942;28;20031;-71
2021/03/03 12:24:47;;;;;;;34.22;14.50;;;8.90;84.20;;;;;;5091990;28;20451;-70
2021/03/03 12:27:13;;;;;;;26.13;13.15;;;8.90;84.10;;;;;;5093047;28;20028;-70
2021/03/03 12:29:39;;;;;;;27.85;13.75;;;8.90;84.00;;;;;;5092597;28;20379;-70
2021/03/03 12:32:06;;;;;;;13.63;5.05;;;9.00;84.00;;;;;;5092628;28;20036;-70
2021/03/03 12:34:31;;;;;;;20.48;7.50;;;9.00;84.00;;;;;;5092937;28;20459;-70
2021/03/03 12:36:57;;;;;;;14.13;7.93;;;8.90;84.00;;;;;;5093199;28;20035;-71
2021/03/03 12:39:23;;;;;;;12.82;6.07;;;9.00;84.10;;;;;;5089878;28;20459;-71
2021/03/03 12:41:48;;;;;;;22.30;11.10;;;8.90;84.10;;;;;;5090840;28;20028;-70
2021/03/03 12:44:14;;;;;;;15.65;8.00;;;8.90;84.20;;;;;;5092155;28;20382;-70
2021/03/03 12:46:40;;;;;;;11.20;6.38;;;8.90;84.20;;;;;;5092241;28;20391;-70
2021/03/03 12:49:06;;;;;;;13.60;7.38;;;8.90;84.40;;;;;;5092657;28;20039;-70